createdAt,value
2024-03-16T00:00:08.635Z,90.4
2024-03-16T00:10:00.875Z,89.3
2024-03-16T00:15:08.377Z,89.3
2024-03-16T00:20:00.617Z,89.4
2024-03-16T00:25:00.746Z,88.9
2024-03-16T00:30:08.661Z,89.5
2024-03-16T00:40:00.729Z,90.1
2024-03-16T01:00:08.586Z,91.3
2024-03-16T01:05:00.684Z,91.0
2024-03-16T01:10:00.810Z,91.2
2024-03-16T01:15:14.280Z,91.2
2024-03-16T01:20:00.613Z,91.3
2024-03-16T01:25:01.345Z,91.5
2024-03-16T01:30:08.633Z,91.4
2024-03-16T01:35:00.732Z,91.9
2024-03-16T01:40:00.702Z,90.3
2024-03-16T01:45:13.535Z,90.4
2024-03-16T01:50:00.673Z,89.0
2024-03-16T01:55:00.735Z,89.7
2024-03-16T02:00:08.297Z,89.8
2024-03-16T02:05:00.861Z,90.4
2024-03-16T02:10:01.689Z,90.2
2024-03-16T02:15:08.113Z,90.0
2024-03-16T02:20:00.706Z,89.6
2024-03-16T02:25:01.616Z,89.0
2024-03-16T02:30:08.566Z,89.3
2024-03-16T02:35:00.653Z,89.1
2024-03-16T02:40:00.942Z,88.8
2024-03-16T02:45:08.274Z,88.7
2024-03-16T02:50:00.683Z,89.2
2024-03-16T02:55:00.684Z,89.1
2024-03-16T03:00:08.503Z,88.8
2024-03-16T03:05:00.629Z,88.7
2024-03-16T03:10:00.991Z,89.8
2024-03-16T03:15:08.523Z,89.4
2024-03-16T03:20:00.659Z,89.4
2024-03-16T03:25:00.758Z,89.2
2024-03-16T03:30:08.586Z,89.7
2024-03-16T03:35:01.546Z,89.3
2024-03-16T03:40:00.937Z,89.2
2024-03-16T03:45:08.068Z,88.3
2024-03-16T03:50:00.654Z,88.5
2024-03-16T03:55:00.633Z,88.1
2024-03-16T04:00:08.563Z,87.6
2024-03-16T04:05:00.826Z,87.4
2024-03-16T04:10:03.681Z,86.5
2024-03-16T04:15:08.091Z,86.1
2024-03-16T04:20:00.631Z,85.3
2024-03-16T04:25:00.893Z,85.4
2024-03-16T04:30:08.864Z,86.4
2024-03-16T04:35:00.969Z,85.9
2024-03-16T04:40:00.782Z,86.4
2024-03-16T04:45:08.105Z,85.6
2024-03-16T04:50:00.638Z,84.9
2024-03-16T04:55:00.676Z,83.6
2024-03-16T05:00:08.567Z,84.3
2024-03-16T05:05:00.611Z,82.0
2024-03-16T05:10:01.013Z,80.8
2024-03-16T05:15:08.114Z,81.4
2024-03-16T05:30:09.152Z,80.7
2024-03-16T05:35:00.657Z,79.4
2024-03-16T05:40:00.685Z,79.3
2024-03-16T05:45:08.068Z,80.0
2024-03-16T05:50:00.663Z,77.8
2024-03-16T05:55:00.664Z,77.8
2024-03-16T06:10:08.252Z,77.5
2024-03-16T06:15:00.642Z,78.4
2024-03-16T06:20:00.929Z,77.0
2024-03-16T06:25:08.232Z,75.6
2024-03-16T06:30:00.720Z,75.7
2024-03-16T06:35:00.672Z,76.8
2024-03-16T06:40:08.715Z,75.4
2024-03-16T06:45:00.911Z,76.9
2024-03-16T06:50:01.229Z,77.8
2024-03-16T06:55:08.232Z,76.7
2024-03-16T07:00:00.692Z,77.3
2024-03-16T07:05:00.661Z,77.6
2024-03-16T07:10:08.209Z,77.3
2024-03-16T07:15:00.663Z,75.1
2024-03-16T07:20:00.630Z,74.2
2024-03-16T07:30:08.476Z,74.5
2024-03-16T07:35:00.685Z,75.8
2024-03-16T07:40:02.011Z,75.2
2024-03-16T07:45:08.133Z,74.7
2024-03-16T07:50:00.683Z,74.2
2024-03-16T07:55:00.896Z,71.7
2024-03-16T08:00:08.549Z,70.3
2024-03-16T08:10:00.778Z,69.9
2024-03-16T08:30:08.330Z,61.8
2024-03-16T08:35:00.621Z,61.7
2024-03-16T08:40:00.808Z,61.3
2024-03-16T09:00:08.646Z,58.4
2024-03-16T09:05:00.876Z,59.9
2024-03-16T09:10:00.738Z,56.4
2024-03-16T09:15:08.256Z,57.1
2024-03-16T09:20:01.788Z,58.0
2024-03-16T09:30:08.317Z,54.9
2024-03-16T09:35:00.935Z,55.9
2024-03-16T09:50:08.245Z,50.7
2024-03-16T09:55:00.701Z,49.1
2024-03-16T10:00:00.672Z,45.3
2024-03-16T10:05:09.751Z,44.6
2024-03-16T10:10:00.735Z,46.3
2024-03-16T10:25:08.168Z,42.9
2024-03-16T10:30:00.632Z,41.7
2024-03-16T10:35:00.918Z,45.0
2024-03-16T10:50:08.843Z,47.3
2024-03-16T11:15:20.397Z,49.8
2024-03-16T11:20:15.282Z,48.5
2024-03-16T11:25:00.962Z,53.2
2024-03-16T11:30:00.690Z,50.1
2024-03-16T11:35:11.277Z,49.5
2024-03-16T11:45:00.700Z,52.2
2024-03-16T11:50:08.747Z,49.9
2024-03-16T11:55:02.615Z,48.9
2024-03-16T12:05:09.056Z,47.6
2024-03-16T12:15:15.294Z,46.6
2024-03-16T12:20:00.738Z,46.4
2024-03-16T12:30:08.565Z,44.2
2024-03-16T12:35:00.711Z,46.3
2024-03-16T12:40:00.940Z,41.6
2024-03-16T12:50:08.134Z,40.9
2024-03-16T12:55:00.920Z,40.9
2024-03-16T13:00:00.675Z,41.5
2024-03-16T13:05:10.473Z,44.7
2024-03-16T13:10:00.850Z,43.6
2024-03-16T13:15:00.779Z,43.3
2024-03-16T13:20:08.237Z,40.9
2024-03-16T13:25:00.639Z,41.2
2024-03-16T13:30:00.923Z,38.3
2024-03-16T13:35:08.102Z,41.2
2024-03-16T13:50:08.391Z,38.3
2024-03-16T14:25:08.169Z,44.6
2024-03-16T14:55:08.154Z,47.4
2024-03-16T15:05:01.041Z,50.1
2024-03-16T15:15:08.278Z,50.5
2024-03-16T15:20:01.108Z,50.7
2024-03-16T15:30:08.722Z,51.3
2024-03-16T15:45:08.269Z,50.6
2024-03-16T16:05:08.482Z,51.0
2024-03-16T16:10:00.618Z,51.0
2024-03-16T16:20:08.516Z,51.0
2024-03-16T16:25:00.605Z,50.7
2024-03-16T16:35:08.171Z,51.7
2024-03-16T16:40:00.671Z,51.9
2024-03-16T16:45:00.725Z,52.5
2024-03-16T16:55:08.177Z,52.1
2024-03-16T17:00:00.706Z,52.1
2024-03-16T17:05:00.916Z,52.4
2024-03-16T17:20:08.383Z,53.5
2024-03-16T17:30:00.875Z,54.1
2024-03-16T17:35:08.179Z,54.2
2024-03-16T17:55:08.173Z,55.0
2024-03-16T18:00:00.913Z,55.0
2024-03-16T18:35:08.531Z,56.2
2024-03-16T18:45:00.911Z,57.1
2024-03-16T18:50:08.421Z,57.2
2024-03-16T18:55:00.679Z,57.7
2024-03-16T19:00:00.706Z,57.5
2024-03-16T19:05:08.353Z,58.3
2024-03-16T19:10:00.657Z,58.9
2024-03-16T19:20:08.542Z,59.4
2024-03-16T19:25:00.644Z,59.5
2024-03-16T19:30:00.928Z,59.7
2024-03-16T19:45:08.722Z,59.8
2024-03-16T19:50:00.672Z,59.7
2024-03-16T20:10:08.692Z,58.4
2024-03-16T20:30:08.664Z,58.4
2024-03-16T20:35:00.684Z,58.2
2024-03-16T20:45:08.473Z,57.2
2024-03-16T20:50:00.704Z,58.5
2024-03-16T21:05:08.586Z,61.0
2024-03-16T21:10:01.012Z,61.5
2024-03-16T21:15:02.477Z,62.2
2024-03-16T21:20:08.704Z,62.4
2024-03-16T21:25:00.626Z,62.9
2024-03-16T21:30:00.671Z,63.1
2024-03-16T21:35:13.508Z,63.4
2024-03-16T21:40:00.642Z,64.0
2024-03-16T21:45:00.613Z,63.7
2024-03-16T21:50:08.763Z,63.9
2024-03-16T21:55:00.617Z,64.0
2024-03-16T22:00:00.873Z,64.4
2024-03-16T22:05:08.648Z,64.7
2024-03-16T22:10:01.037Z,65.0
2024-03-16T22:35:08.674Z,63.7
2024-03-16T22:40:00.882Z,64.1
2024-03-16T22:55:08.642Z,64.8
2024-03-16T23:00:00.633Z,64.4
2024-03-16T23:05:00.653Z,64.2
2024-03-16T23:25:08.316Z,66.2
2024-03-16T23:40:11.064Z,68.5
2024-03-16T23:45:00.624Z,67.7
2024-03-16T23:50:00.646Z,67.3
2024-03-16T23:55:08.237Z,68.4
